Time;durP1;ratioP1;P1;durP2;ratioP2;P2;SDS_P1;SDS_P2;PMS_P1;PMS_P2;Temp;Humidity;BMP_temperature;BMP_pressure;BME280_temperature;BME280_humidity;BME280_pressure;Samples;Min_cycle;Max_cycle;Signal;HPM_P1;HPM_P2
2023/02/19 00:00:32;;;;;;;;;;;18.40;48.70;;;;;;5008516;28;19917;-74
2023/02/19 00:02:57;;;;;;;;;;;18.40;48.90;;;;;;5008181;28;20440;-72
2023/02/19 00:05:23;;;;;;;;;;;18.40;48.80;;;;;;5007430;28;20311;-73
2023/02/19 00:07:49;;;;;;;;;;;18.50;48.80;;;;;;5008300;28;19917;-72
2023/02/19 00:10:14;;;;;;;;;;;18.60;48.50;;;;;;5008499;28;19910;-71
2023/02/19 00:12:40;;;;;;;;;;;18.70;48.30;;;;;;5006923;28;19909;-71
2023/02/19 00:15:05;;;;;;;;;;;18.90;48.10;;;;;;5008198;28;20174;-72
2023/02/19 00:17:31;;;;;;;;;;;18.90;47.70;;;;;;5008067;28;19909;-71
2023/02/19 00:19:56;;;;;;;;;;;19.10;47.50;;;;;;5006803;28;19912;-71
2023/02/19 00:22:22;;;;;;;;;;;19.10;47.40;;;;;;5006118;28;19910;-71
2023/02/19 00:24:48;;;;;;;;;;;19.10;47.30;;;;;;5008057;28;19913;-72
2023/02/19 00:27:13;;;;;;;;;;;19.10;47.20;;;;;;5007905;28;19984;-71
2023/02/19 00:29:39;;;;;;;;;;;19.10;47.20;;;;;;5007978;28;19965;-71
2023/02/19 00:32:04;;;;;;;;;;;19.20;47.20;;;;;;5008072;28;19909;-71
2023/02/19 00:34:30;;;;;;;;;;;19.20;47.00;;;;;;5006141;28;19910;-71
2023/02/19 00:36:55;;;;;;;;;;;19.20;47.00;;;;;;5008263;28;19917;-71
2023/02/19 00:39:21;;;;;;;;;;;19.20;46.90;;;;;;5006258;28;19910;-72
2023/02/19 00:41:46;;;;;;;;;;;19.10;46.90;;;;;;5008070;28;20344;-71
2023/02/19 00:44:12;;;;;;;;;;;19.10;47.00;;;;;;5008278;28;19910;-71
2023/02/19 00:46:39;;;;;;;;;;;19.00;47.10;;;;;;5007908;28;19909;-71
2023/02/19 00:49:06;;;;;;;;;;;19.00;47.30;;;;;;5007682;28;20218;-72
2023/02/19 00:51:34;;;;;;;;;;;19.00;47.40;;;;;;5007636;28;20203;-71
2023/02/19 00:53:59;;;;;;;;;;;18.90;47.60;;;;;;5005835;28;19922;-72
2023/02/19 00:56:25;;;;;;;;;;;18.90;47.70;;;;;;5007373;28;19914;-72
2023/02/19 00:58:51;;;;;;;;;;;18.80;47.80;;;;;;5007064;28;19948;-74
2023/02/19 01:01:18;;;;;;;;;;;18.70;48.00;;;;;;5006979;28;19920;-73
2023/02/19 01:03:44;;;;;;;;;;;18.70;48.00;;;;;;5007029;28;19976;-69
2023/02/19 01:06:10;;;;;;;;;;;18.70;48.20;;;;;;5005816;28;19920;-71
2023/02/19 01:08:35;;;;;;;;;;;18.60;48.30;;;;;;5005287;28;20089;-74
2023/02/19 01:11:02;;;;;;;;;;;18.60;48.40;;;;;;5006693;28;19970;-73
2023/02/19 01:13:28;;;;;;;;;;;18.50;48.40;;;;;;5007241;28;19917;-70
2023/02/19 01:16:01;;;;;;;;;;;18.50;48.60;;;;;;5005563;28;19937;-70
2023/02/19 01:18:26;;;;;;;;;;;18.50;48.70;;;;;;5006287;28;19909;-72
2023/02/19 01:20:52;;;;;;;;;;;18.50;48.70;;;;;;5007289;28;19910;-71
2023/02/19 01:23:17;;;;;;;;;;;18.50;48.60;;;;;;5007117;28;19953;-74
2023/02/19 01:25:43;;;;;;;;;;;18.50;48.70;;;;;;5006691;28;19952;-71
2023/02/19 01:28:09;;;;;;;;;;;18.50;48.70;;;;;;5006685;28;19956;-72
2023/02/19 01:30:35;;;;;;;;;;;18.40;48.80;;;;;;5006913;28;20168;-72
2023/02/19 01:33:03;;;;;;;;;;;18.40;48.60;;;;;;5005390;28;20194;-70
2023/02/19 01:35:29;;;;;;;;;;;18.40;48.80;;;;;;5007058;28;19906;-73
2023/02/19 01:37:54;;;;;;;;;;;18.40;48.70;;;;;;5005620;28;19917;-73
2023/02/19 01:40:20;;;;;;;;;;;18.40;48.70;;;;;;5006250;28;19920;-71
2023/02/19 01:42:45;;;;;;;;;;;18.50;48.80;;;;;;5006087;28;19910;-71
2023/02/19 01:45:25;;;;;;;;;;;18.60;48.60;;;;;;5006705;28;20213;-71
2023/02/19 01:48:03;;;;;;;;;;;18.70;48.30;;;;;;5005342;28;20244;-71
2023/02/19 01:50:31;;;;;;;;;;;18.90;48.10;;;;;;5006861;28;19937;-70
2023/02/19 01:52:58;;;;;;;;;;;19.00;47.90;;;;;;5004783;28;19918;-72
2023/02/19 01:55:23;;;;;;;;;;;19.10;47.70;;;;;;5006238;28;19921;-70
2023/02/19 01:57:52;;;;;;;;;;;19.10;47.60;;;;;;5006936;28;19933;-74
2023/02/19 02:00:17;;;;;;;;;;;19.10;47.90;;;;;;5006459;28;19901;-72
2023/02/19 02:02:45;;;;;;;;;;;19.10;47.20;;;;;;5005359;28;19953;-71
2023/02/19 02:05:37;;;;;;;;;;;19.10;47.20;;;;;;5006734;28;19914;-71
2023/02/19 02:10:47;;;;;;;;;;;19.20;47.10;;;;;;5006628;28;19917;-72
2023/02/19 02:13:13;;;;;;;;;;;19.20;47.00;;;;;;5007151;28;20201;-71
2023/02/19 02:15:59;;;;;;;;;;;19.20;47.10;;;;;;5006976;28;20194;-72
2023/02/19 02:18:39;;;;;;;;;;;19.10;47.10;;;;;;5006971;28;19972;-71
2023/02/19 02:21:16;;;;;;;;;;;19.10;47.20;;;;;;5007013;28;19920;-72
2023/02/19 02:23:53;;;;;;;;;;;19.00;47.40;;;;;;5006712;28;19917;-73
2023/02/19 02:26:21;;;;;;;;;;;18.90;47.60;;;;;;5006368;28;19944;-71
2023/02/19 02:28:56;;;;;;;;;;;18.90;47.70;;;;;;5008031;28;19913;-73
2023/02/19 02:31:25;;;;;;;;;;;18.80;47.80;;;;;;5009754;28;19910;-71
2023/02/19 02:34:05;;;;;;;;;;;18.70;48.00;;;;;;5007656;28;20332;-71
2023/02/19 02:36:39;;;;;;;;;;;18.70;48.00;;;;;;5009640;28;19932;-71
2023/02/19 02:39:06;;;;;;;;;;;18.60;48.30;;;;;;5009883;28;20193;-70
2023/02/19 02:41:32;;;;;;;;;;;18.60;48.40;;;;;;5009114;28;19941;-73
2023/02/19 02:43:58;;;;;;;;;;;18.50;48.50;;;;;;5009783;28;19933;-71
2023/02/19 02:46:28;;;;;;;;;;;18.50;48.60;;;;;;5009373;28;19912;-72
2023/02/19 02:49:02;;;;;;;;;;;18.50;48.70;;;;;;5009985;28;20012;-73
2023/02/19 02:51:37;;;;;;;;;;;18.40;48.80;;;;;;5009671;28;19916;-70
2023/02/19 02:56:53;;;;;;;;;;;18.30;48.90;;;;;;5008962;28;19916;-71
2023/02/19 02:59:21;;;;;;;;;;;18.30;49.00;;;;;;5008994;28;19909;-73
2023/02/19 03:02:11;;;;;;;;;;;18.30;49.10;;;;;;5007494;28;19941;-72
2023/02/19 03:07:53;;;;;;;;;;;18.30;48.90;;;;;;5008050;28;19917;-73
2023/02/19 03:10:25;;;;;;;;;;;18.30;48.80;;;;;;5001207;28;19910;-70
2023/02/19 03:21:10;;;;;;;;;;;18.30;49.00;;;;;;5008024;28;19917;-71
2023/02/19 03:26:20;;;;;;;;;;;18.50;49.10;;;;;;5008310;28;20224;-72
2023/02/19 03:31:32;;;;;;;;;;;18.70;48.50;;;;;;5008840;28;19952;-72
2023/02/19 03:34:00;;;;;;;;;;;18.90;48.20;;;;;;5007894;28;19988;-71
2023/02/19 03:36:29;;;;;;;;;;;19.00;48.00;;;;;;5008541;28;19909;-72
2023/02/19 03:39:05;;;;;;;;;;;19.00;47.80;;;;;;5008470;28;19916;-71
2023/02/19 03:41:45;;;;;;;;;;;19.10;47.70;;;;;;5006540;28;19913;-71
2023/02/19 03:44:15;;;;;;;;;;;19.10;47.50;;;;;;5008344;28;19941;-74
2023/02/19 03:46:45;;;;;;;;;;;19.10;47.40;;;;;;5005501;28;19952;-71
2023/02/19 03:49:26;;;;;;;;;;;19.10;47.50;;;;;;5007667;28;19920;-73
2023/02/19 03:52:07;;;;;;;;;;;19.10;47.40;;;;;;5007940;28;19976;-73
2023/02/19 03:54:50;;;;;;;;;;;19.00;47.50;;;;;;5007584;28;19921;-73
2023/02/19 03:57:19;;;;;;;;;;;18.90;47.60;;;;;;5008565;28;19938;-72
2023/02/19 03:59:51;;;;;;;;;;;18.90;47.90;;;;;;5006790;28;19976;-71
2023/02/19 04:02:39;;;;;;;;;;;18.80;48.00;;;;;;5008250;28;19909;-73
2023/02/19 04:05:13;;;;;;;;;;;18.70;48.20;;;;;;5008475;28;19937;-71
2023/02/19 04:07:40;;;;;;;;;;;18.60;48.40;;;;;;5007489;28;19916;-71
2023/02/19 04:10:08;;;;;;;;;;;18.60;48.60;;;;;;5007892;28;20109;-70
2023/02/19 04:12:35;;;;;;;;;;;18.50;48.70;;;;;;5007463;28;19917;-72
2023/02/19 04:15:03;;;;;;;;;;;18.50;48.70;;;;;;5007193;28;19948;-70
2023/02/19 04:17:34;;;;;;;;;;;18.50;48.90;;;;;;5007403;28;19910;-70
2023/02/19 04:20:02;;;;;;;;;;;18.40;48.90;;;;;;5007611;28;19909;-74
2023/02/19 04:22:28;;;;;;;;;;;18.40;48.90;;;;;;5005601;28;19913;-72
2023/02/19 04:24:57;;;;;;;;;;;18.30;49.10;;;;;;5006316;28;19985;-73
2023/02/19 04:27:22;;;;;;;;;;;18.30;49.20;;;;;;5004972;28;19961;-73
2023/02/19 04:29:48;;;;;;;;;;;18.30;49.20;;;;;;5005924;28;19910;-73
2023/02/19 04:32:13;;;;;;;;;;;18.20;49.20;;;;;;5005256;28;19910;-75
2023/02/19 04:34:39;;;;;;;;;;;18.20;49.20;;;;;;5006228;28;19910;-72
2023/02/19 04:37:05;;;;;;;;;;;18.20;49.20;;;;;;5005976;28;19910;-72
2023/02/19 04:39:30;;;;;;;;;;;18.20;49.40;;;;;;5004940;28;19913;-71
2023/02/19 04:41:56;;;;;;;;;;;18.30;49.30;;;;;;5006256;28;19909;-74
2023/02/19 04:44:22;;;;;;;;;;;18.40;49.20;;;;;;5006438;28;19913;-73
2023/02/19 04:46:47;;;;;;;;;;;18.50;49.10;;;;;;5006975;28;19910;-73
2023/02/19 04:49:13;;;;;;;;;;;18.60;48.80;;;;;;5007124;28;19953;-70
2023/02/19 04:51:39;;;;;;;;;;;18.80;48.60;;;;;;5006627;28;19917;-74
2023/02/19 04:54:04;;;;;;;;;;;18.90;48.30;;;;;;5006348;28;19921;-72
2023/02/19 04:56:30;;;;;;;;;;;19.00;48.10;;;;;;5006370;28;20153;-72
2023/02/19 04:58:56;;;;;;;;;;;19.10;48.00;;;;;;5006778;28;20173;-74
2023/02/19 05:01:21;;;;;;;;;;;19.10;47.90;;;;;;5005150;28;19909;-72
2023/02/19 05:03:47;;;;;;;;;;;19.10;47.70;;;;;;5006381;28;19908;-73
2023/02/19 05:06:13;;;;;;;;;;;19.10;47.80;;;;;;5005507;28;19914;-73
2023/02/19 05:08:38;;;;;;;;;;;19.00;47.80;;;;;;5006830;28;19948;-72
2023/02/19 05:11:05;;;;;;;;;;;19.00;47.90;;;;;;5007362;28;19909;-73
2023/02/19 05:13:31;;;;;;;;;;;18.90;48.10;;;;;;5006256;28;19945;-72
2023/02/19 05:15:58;;;;;;;;;;;18.80;48.10;;;;;;5006282;28;19901;-72
2023/02/19 05:18:23;;;;;;;;;;;18.70;48.20;;;;;;5006385;28;19917;-74
2023/02/19 05:20:50;;;;;;;;;;;18.70;48.40;;;;;;5004580;28;19910;-72
2023/02/19 05:23:15;;;;;;;;;;;18.70;48.60;;;;;;5006413;28;19909;-72
2023/02/19 05:25:41;;;;;;;;;;;18.60;48.60;;;;;;5005295;28;19914;-72
2023/02/19 05:28:18;;;;;;;;;;;18.50;48.80;;;;;;5005615;28;19910;-72
2023/02/19 05:30:45;;;;;;;;;;;18.50;48.80;;;;;;5005409;28;19934;-70
2023/02/19 05:33:10;;;;;;;;;;;18.50;48.90;;;;;;5005484;28;19909;-71
2023/02/19 05:35:40;;;;;;;;;;;18.40;48.90;;;;;;5005824;28;19933;-72
2023/02/19 05:38:06;;;;;;;;;;;18.40;49.00;;;;;;5003613;28;19909;-70
2023/02/19 05:40:33;;;;;;;;;;;18.40;49.10;;;;;;5004413;28;19905;-75
2023/02/19 05:42:58;;;;;;;;;;;18.40;49.20;;;;;;5005679;28;19906;-74
2023/02/19 05:45:24;;;;;;;;;;;18.30;49.20;;;;;;5005228;28;19914;-71
2023/02/19 05:47:49;;;;;;;;;;;18.30;49.30;;;;;;5005378;28;19909;-72
2023/02/19 05:50:15;;;;;;;;;;;18.20;49.30;;;;;;5003609;28;19910;-71
2023/02/19 05:52:40;;;;;;;;;;;18.20;49.40;;;;;;5005097;28;19916;-70
2023/02/19 05:55:06;;;;;;;;;;;18.20;49.30;;;;;;5005029;28;19968;-74
2023/02/19 05:57:32;;;;;;;;;;;18.20;49.40;;;;;;5005419;28;20260;-72
2023/02/19 05:59:57;;;;;;;;;;;18.30;49.30;;;;;;5005477;28;20182;-71
2023/02/19 06:02:23;;;;;;;;;;;18.40;49.30;;;;;;5004474;28;20245;-71
2023/02/19 06:04:48;;;;;;;;;;;18.50;49.10;;;;;;5009749;28;19913;-70
2023/02/19 06:07:14;;;;;;;;;;;18.70;48.90;;;;;;5008590;28;19961;-72
2023/02/19 06:09:39;;;;;;;;;;;18.80;48.50;;;;;;5009263;28;19913;-70
2023/02/19 06:12:06;;;;;;;;;;;18.90;48.20;;;;;;5009623;28;19910;-71
2023/02/19 06:14:32;;;;;;;;;;;19.00;48.10;;;;;;5010600;28;20332;-70
2023/02/19 06:16:57;;;;;;;;;;;19.00;47.90;;;;;;5008975;28;19909;-71
2023/02/19 06:19:23;;;;;;;;;;;19.00;47.80;;;;;;5009479;28;20209;-71
2023/02/19 06:21:49;;;;;;;;;;;19.10;47.70;;;;;;5008560;28;19971;-74
2023/02/19 06:24:14;;;;;;;;;;;19.10;47.70;;;;;;5007567;28;19953;-73
2023/02/19 06:26:40;;;;;;;;;;;19.10;47.60;;;;;;5008848;28;20012;-74
2023/02/19 06:29:05;;;;;;;;;;;19.00;47.70;;;;;;5009587;28;19909;-74
2023/02/19 06:31:31;;;;;;;;;;;19.00;47.80;;;;;;5008794;28;19909;-72
2023/02/19 06:33:57;;;;;;;;;;;18.90;47.90;;;;;;5007769;28;19910;-73
2023/02/19 06:36:22;;;;;;;;;;;18.90;48.00;;;;;;5008622;28;19939;-74
2023/02/19 06:38:48;;;;;;;;;;;18.80;48.20;;;;;;5007915;28;20244;-72
2023/02/19 06:41:14;;;;;;;;;;;18.70;48.40;;;;;;5007279;28;19906;-73
2023/02/19 06:43:39;;;;;;;;;;;18.70;48.50;;;;;;5007842;28;19901;-73
2023/02/19 06:46:06;;;;;;;;;;;18.60;48.60;;;;;;5008003;28;19913;-74
2023/02/19 06:48:32;;;;;;;;;;;18.60;48.80;;;;;;5007622;28;19909;-71
2023/02/19 06:50:58;;;;;;;;;;;18.50;48.80;;;;;;5008894;28;19910;-70
2023/02/19 06:53:23;;;;;;;;;;;18.50;48.90;;;;;;5007943;28;19909;-72
2023/02/19 06:55:58;;;;;;;;;;;18.50;48.90;;;;;;5007598;28;19920;-72
2023/02/19 06:58:24;;;;;;;;;;;18.40;49.00;;;;;;5007465;28;19920;-72
2023/02/19 07:00:49;;;;;;;;;;;18.40;49.10;;;;;;5007438;28;19901;-74
2023/02/19 07:03:15;;;;;;;;;;;18.30;49.20;;;;;;5008048;28;19910;-74
2023/02/19 07:05:40;;;;;;;;;;;18.30;49.20;;;;;;5007754;28;20025;-72
2023/02/19 07:08:06;;;;;;;;;;;18.30;49.10;;;;;;5007670;28;19913;-74
2023/02/19 07:10:31;;;;;;;;;;;18.30;49.10;;;;;;5007797;28;19910;-73
2023/02/19 07:12:57;;;;;;;;;;;18.40;49.10;;;;;;5007824;28;19984;-74
2023/02/19 07:15:22;;;;;;;;;;;18.30;49.00;;;;;;5006320;28;19941;-74
2023/02/19 07:17:48;;;;;;;;;;;18.30;49.00;;;;;;5007495;28;19910;-74
2023/02/19 07:20:13;;;;;;;;;;;18.30;49.10;;;;;;5006980;28;19951;-73
2023/02/19 07:22:39;;;;;;;;;;;18.30;49.10;;;;;;5007754;28;19910;-74
2023/02/19 07:25:05;;;;;;;;;;;18.40;49.10;;;;;;5005962;28;19912;-73
2023/02/19 07:27:30;;;;;;;;;;;18.50;49.10;;;;;;5008033;28;19908;-74
2023/02/19 07:29:56;;;;;;;;;;;18.60;49.00;;;;;;5008470;28;20188;-74
2023/02/19 07:32:21;;;;;;;;;;;18.70;48.90;;;;;;5007955;28;19994;-73
2023/02/19 07:34:47;;;;;;;;;;;18.80;48.60;;;;;;5007935;28;19909;-71
2023/02/19 07:37:12;;;;;;;;;;;18.90;48.40;;;;;;5007962;28;19909;-71
2023/02/19 07:39:38;;;;;;;;;;;19.00;48.00;;;;;;5006535;28;19941;-71
2023/02/19 07:42:03;;;;;;;;;;;19.10;48.00;;;;;;5007955;28;19917;-72
2023/02/19 07:44:29;;;;;;;;;;;19.10;47.70;;;;;;5007796;28;19915;-70
2023/02/19 07:46:55;;;;;;;;;;;19.10;47.70;;;;;;5005922;28;19917;-72
2023/02/19 07:49:20;;;;;;;;;;;19.10;47.60;;;;;;5007672;28;19909;-73
2023/02/19 07:51:46;;;;;;;;;;;19.10;47.50;;;;;;5008091;28;19941;-73
2023/02/19 07:54:12;;;;;;;;;;;19.10;47.60;;;;;;5007813;28;19921;-73
2023/02/19 07:56:37;;;;;;;;;;;19.10;47.70;;;;;;5008114;28;19909;-70
2023/02/19 07:59:03;;;;;;;;;;;19.00;47.70;;;;;;5008047;28;20105;-72
2023/02/19 08:04:14;;;;;;;;;;;18.90;48.00;;;;;;5006875;28;19992;-73
2023/02/19 08:06:40;;;;;;;;;;;18.90;48.20;;;;;;5007055;28;19913;-72
2023/02/19 08:09:06;;;;;;;;;;;18.80;48.40;;;;;;5006304;28;19909;-72
2023/02/19 08:14:16;;;;;;;;;;;18.70;48.60;;;;;;5005952;28;19917;-74
2023/02/19 08:16:51;;;;;;;;;;;18.70;48.70;;;;;;5005297;28;20098;-74
2023/02/19 08:19:17;;;;;;;;;;;18.70;48.90;;;;;;5005433;28;20461;-75
2023/02/19 08:21:43;;;;;;;;;;;18.60;48.90;;;;;;5004273;28;19953;-74
2023/02/19 08:24:08;;;;;;;;;;;18.60;49.00;;;;;;5005303;28;19917;-76
2023/02/19 08:26:34;;;;;;;;;;;18.50;49.00;;;;;;5004036;28;19913;-75
2023/02/19 08:29:00;;;;;;;;;;;18.50;49.10;;;;;;5005333;28;19910;-75
2023/02/19 08:31:26;;;;;;;;;;;18.50;49.20;;;;;;5005456;28;19910;-73
2023/02/19 08:33:51;;;;;;;;;;;18.40;49.20;;;;;;5005173;28;19937;-74
2023/02/19 08:36:17;;;;;;;;;;;18.40;49.30;;;;;;5005192;28;19902;-75
2023/02/19 08:38:42;;;;;;;;;;;18.40;49.30;;;;;;5004785;28;20214;-72
2023/02/19 08:41:10;;;;;;;;;;;18.30;49.40;;;;;;5004592;28;20124;-74
2023/02/19 08:43:35;;;;;;;;;;;18.30;49.40;;;;;;5005374;28;19941;-74
2023/02/19 08:46:01;;;;;;;;;;;18.30;49.50;;;;;;5005725;28;19913;-73
2023/02/19 08:48:27;;;;;;;;;;;18.40;49.50;;;;;;5006809;28;19952;-72
2023/02/19 08:50:57;;;;;;;;;;;18.50;49.40;;;;;;5005760;28;19909;-74
2023/02/19 08:53:25;;;;;;;;;;;18.60;49.30;;;;;;5005782;28;20209;-73
2023/02/19 08:55:51;;;;;;;;;;;18.80;49.10;;;;;;5006165;28;19922;-71
2023/02/19 08:58:16;;;;;;;;;;;18.90;48.90;;;;;;5005597;28;19977;-73
2023/02/19 09:00:42;;;;;;;;;;;19.00;48.60;;;;;;5004949;28;19901;-71
2023/02/19 09:03:08;;;;;;;;;;;19.00;48.40;;;;;;5004998;28;20257;-73
2023/02/19 09:05:33;;;;;;;;;;;19.10;48.20;;;;;;5005125;28;19917;-73
2023/02/19 09:07:59;;;;;;;;;;;19.10;48.10;;;;;;5006552;28;19917;-73
2023/02/19 09:10:25;;;;;;;;;;;19.10;48.00;;;;;;5005812;28;19921;-72
2023/02/19 09:12:50;;;;;;;;;;;19.20;47.90;;;;;;5005996;28;19917;-71
2023/02/19 09:15:16;;;;;;;;;;;19.20;47.80;;;;;;5006998;28;20304;-74
2023/02/19 09:17:42;;;;;;;;;;;19.20;47.80;;;;;;5006145;28;19932;-71
2023/02/19 09:20:09;;;;;;;;;;;19.20;48.00;;;;;;5006490;28;19901;-71
2023/02/19 09:22:35;;;;;;;;;;;19.00;48.00;;;;;;5006673;28;19909;-72
2023/02/19 09:25:00;;;;;;;;;;;19.00;48.20;;;;;;5006086;28;19925;-72
2023/02/19 09:27:26;;;;;;;;;;;19.00;48.30;;;;;;5004534;28;19909;-72
2023/02/19 09:29:53;;;;;;;;;;;19.00;48.40;;;;;;5005950;28;19916;-71
2023/02/19 09:32:19;;;;;;;;;;;18.90;48.50;;;;;;5006565;28;19909;-71
2023/02/19 09:34:44;;;;;;;;;;;18.90;48.60;;;;;;5004076;28;20252;-72
2023/02/19 09:37:10;;;;;;;;;;;18.80;48.60;;;;;;5003534;28;19976;-72
2023/02/19 09:39:35;;;;;;;;;;;18.80;48.60;;;;;;5011529;28;20129;-73
2023/02/19 09:42:10;;;;;;;;;;;18.80;48.60;;;;;;5011238;28;19949;-74
2023/02/19 09:44:37;;;;;;;;;;;18.70;48.60;;;;;;5011306;28;19980;-73
2023/02/19 09:47:06;;;;;;;;;;;18.70;48.70;;;;;;5011888;28;19909;-74
2023/02/19 09:49:32;;;;;;;;;;;18.70;48.70;;;;;;5011847;28;20260;-70
2023/02/19 09:52:07;;;;;;;;;;;18.70;48.80;;;;;;5010404;28;19917;-73
2023/02/19 09:54:35;;;;;;;;;;;18.70;48.80;;;;;;5012088;28;19921;-72
2023/02/19 09:57:01;;;;;;;;;;;18.70;48.80;;;;;;5012460;28;19905;-72
2023/02/19 09:59:39;;;;;;;;;;;18.70;48.70;;;;;;5011605;28;19910;-71
2023/02/19 10:02:15;;;;;;;;;;;18.70;48.70;;;;;;5009929;28;19963;-73
2023/02/19 10:04:42;;;;;;;;;;;18.70;48.70;;;;;;5011821;28;19916;-70
2023/02/19 10:07:15;;;;;;;;;;;18.70;48.60;;;;;;5011150;28;20216;-72
2023/02/19 10:09:41;;;;;;;;;;;18.70;48.50;;;;;;5009916;28;20385;-70
2023/02/19 10:12:14;;;;;;;;;;;18.70;48.60;;;;;;5010721;28;19913;-71
2023/02/19 10:14:45;;;;;;;;;;;18.70;48.80;;;;;;5009096;28;19910;-73
2023/02/19 10:17:18;;;;;;;;;;;18.70;48.80;;;;;;5010600;28;19910;-71
2023/02/19 10:19:44;;;;;;;;;;;18.70;48.70;;;;;;5010797;28;19965;-73
2023/02/19 10:22:11;;;;;;;;;;;18.70;48.80;;;;;;5009593;28;19901;-76
2023/02/19 10:24:40;;;;;;;;;;;18.70;48.70;;;;;;5012034;28;19941;-73
2023/02/19 10:27:10;;;;;;;;;;;18.70;48.70;;;;;;5011038;28;19921;-70
2023/02/19 10:29:35;;;;;;;;;;;18.70;48.60;;;;;;5011846;28;19917;-73
2023/02/19 10:32:22;;;;;;;;;;;18.70;48.60;;;;;;5011266;28;19942;-73
2023/02/19 10:35:07;;;;;;;;;;;18.80;48.50;;;;;;5011131;28;19933;-74
2023/02/19 10:37:33;;;;;;;;;;;18.80;48.30;;;;;;5010195;28;19909;-74
2023/02/19 10:39:59;;;;;;;;;;;18.90;48.30;;;;;;5011456;28;19913;-73
2023/02/19 10:42:25;;;;;;;;;;;18.90;48.20;;;;;;5011056;28;19940;-72
2023/02/19 10:44:57;;;;;;;;;;;18.90;48.20;;;;;;5010925;28;19917;-72
2023/02/19 10:47:24;;;;;;;;;;;18.90;48.30;;;;;;5011231;28;19916;-70
2023/02/19 10:49:50;;;;;;;;;;;18.80;48.30;;;;;;5011019;28;19902;-73
2023/02/19 10:52:35;;;;;;;;;;;18.80;48.50;;;;;;5009054;28;19973;-74
2023/02/19 10:55:20;;;;;;;;;;;18.80;48.60;;;;;;5008879;28;19928;-69
2023/02/19 10:57:46;;;;;;;;;;;18.70;48.60;;;;;;5009401;28;19912;-72
2023/02/19 11:00:14;;;;;;;;;;;18.70;48.70;;;;;;5006668;28;20108;-72
2023/02/19 11:02:41;;;;;;;;;;;18.70;48.70;;;;;;5007960;28;19912;-72
2023/02/19 11:05:15;;;;;;;;;;;18.70;48.70;;;;;;5009045;28;20140;-71
2023/02/19 11:07:52;;;;;;;;;;;18.70;48.70;;;;;;5008942;28;19947;-70
2023/02/19 11:10:28;;;;;;;;;;;18.70;48.80;;;;;;5008342;28;19932;-72
2023/02/19 11:12:56;;;;;;;;;;;18.70;48.80;;;;;;5008135;28;19910;-72
2023/02/19 11:15:28;;;;;;;;;;;18.70;48.80;;;;;;5007664;28;19910;-71
2023/02/19 11:18:06;;;;;;;;;;;18.70;48.80;;;;;;5007782;28;19916;-71
2023/02/19 11:20:32;;;;;;;;;;;18.70;48.90;;;;;;5009240;28;19910;-72
2023/02/19 11:23:00;;;;;;;;;;;18.70;48.90;;;;;;5009452;28;19973;-70
2023/02/19 11:25:26;;;;;;;;;;;18.70;48.90;;;;;;5009819;28;19906;-71
2023/02/19 11:28:10;;;;;;;;;;;18.70;49.00;;;;;;5009338;28;20213;-71
2023/02/19 11:30:38;;;;;;;;;;;18.60;48.90;;;;;;5007693;28;19902;-71
2023/02/19 11:33:16;;;;;;;;;;;18.60;48.90;;;;;;5007613;28;19920;-70
2023/02/19 11:35:42;;;;;;;;;;;18.60;48.90;;;;;;5006871;28;19910;-73
2023/02/19 11:38:09;;;;;;;;;;;18.60;49.00;;;;;;5007051;28;19956;-72
2023/02/19 11:40:41;;;;;;;;;;;18.60;48.90;;;;;;5008673;28;19909;-72
2023/02/19 11:43:15;;;;;;;;;;;18.60;49.00;;;;;;5007632;28;20109;-74
2023/02/19 11:45:48;;;;;;;;;;;18.60;49.00;;;;;;5006362;28;19906;-72
2023/02/19 11:48:20;;;;;;;;;;;18.60;49.00;;;;;;5006797;28;19910;-73
2023/02/19 11:50:58;;;;;;;;;;;18.60;49.00;;;;;;5006702;28;19980;-75
2023/02/19 11:53:26;;;;;;;;;;;18.60;49.00;;;;;;5007017;28;19917;-75
2023/02/19 11:55:54;;;;;;;;;;;18.60;49.10;;;;;;5006991;28;19921;-71
2023/02/19 11:58:38;;;;;;;;;;;18.60;49.10;;;;;;5006280;28;19913;-73
2023/02/19 12:01:04;;;;;;;;;;;18.60;49.10;;;;;;5005952;28;19909;-74
2023/02/19 12:03:52;;;;;;;;;;;18.60;49.20;;;;;;5007373;28;19917;-70
2023/02/19 12:06:18;;;;;;;;;;;18.60;49.70;;;;;;5006654;28;19914;-71
2023/02/19 12:08:46;;;;;;;;;;;18.60;49.10;;;;;;5006109;28;20264;-71
2023/02/19 12:11:31;;;;;;;;;;;18.60;49.10;;;;;;5006673;28;19902;-73
2023/02/19 12:13:59;;;;;;;;;;;18.60;49.10;;;;;;5006273;28;19933;-72
2023/02/19 12:16:30;;;;;;;;;;;18.60;49.80;;;;;;5007315;28;20205;-74
2023/02/19 12:19:21;;;;;;;;;;;18.60;49.20;;;;;;5007159;28;19972;-71
2023/02/19 12:22:05;;;;;;;;;;;18.60;49.10;;;;;;5006832;28;19901;-76
2023/02/19 12:24:31;;;;;;;;;;;18.60;49.10;;;;;;5007193;28;19909;-71
2023/02/19 12:26:57;;;;;;;;;;;18.50;49.10;;;;;;5005925;28;19912;-74
2023/02/19 12:29:25;;;;;;;;;;;18.50;49.20;;;;;;5005968;28;19906;-74
2023/02/19 12:32:12;;;;;;;;;;;18.50;49.20;;;;;;5005847;28;19909;-72
2023/02/19 12:34:57;;;;;;;;;;;18.50;49.20;;;;;;5006155;28;19927;-73
2023/02/19 12:37:22;;;;;;;;;;;18.50;49.20;;;;;;5006294;28;20145;-74
2023/02/19 12:40:07;;;;;;;;;;;18.50;49.30;;;;;;5006249;28;19909;-71
2023/02/19 12:42:39;;;;;;;;;;;18.50;49.20;;;;;;5007310;28;19902;-74
2023/02/19 12:45:23;;;;;;;;;;;18.60;49.10;;;;;;5006794;28;19914;-71
2023/02/19 12:48:21;;;;;;;;;;;18.70;49.10;;;;;;5007167;28;19909;-73
2023/02/19 12:50:48;;;;;;;;;;;18.70;48.90;;;;;;4985003;28;19910;-72
2023/02/19 12:53:33;;;;;;;;;;;18.70;48.80;;;;;;5006315;28;19910;-72
2023/02/19 12:55:59;;;;;;;;;;;18.80;48.70;;;;;;5007596;28;19913;-71
2023/02/19 12:58:31;;;;;;;;;;;18.80;48.60;;;;;;5007445;28;19944;-71
2023/02/19 13:00:58;;;;;;;;;;;18.80;48.60;;;;;;5006143;28;19916;-71
2023/02/19 13:03:27;;;;;;;;;;;18.80;48.60;;;;;;5007478;28;20124;-72
2023/02/19 13:06:11;;;;;;;;;;;18.80;48.60;;;;;;5007516;28;19972;-74
2023/02/19 13:08:40;;;;;;;;;;;18.80;48.70;;;;;;5007512;28;19914;-71
2023/02/19 13:11:09;;;;;;;;;;;18.70;48.70;;;;;;5007368;28;19910;-72
2023/02/19 13:13:42;;;;;;;;;;;18.70;49.40;;;;;;5006425;28;19916;-70
2023/02/19 13:16:12;;;;;;;;;;;18.70;48.90;;;;;;5006975;28;20203;-72
2023/02/19 13:18:45;;;;;;;;;;;18.70;49.00;;;;;;5006925;28;19972;-72
2023/02/19 13:23:57;;;;;;;;;;;18.70;49.00;;;;;;5006900;28;19917;-72
2023/02/19 13:24:02;;;;;;;;;;;18.60;49.00;;;;;;5006763;28;19902;-71
2023/02/19 13:26:47;;;;;;;;;;;18.60;49.00;;;;;;5006648;28;19945;-71
2023/02/19 13:29:18;;;;;;;;;;;18.60;49.00;;;;;;5006894;28;19933;-73
2023/02/19 13:31:44;;;;;;;;;;;18.70;49.00;;;;;;5007306;28;19902;-73
2023/02/19 13:34:19;;;;;;;;;;;18.70;48.90;;;;;;5007261;28;19910;-72
2023/02/19 13:36:47;;;;;;;;;;;18.70;48.90;;;;;;5006837;28;19976;-74
2023/02/19 13:39:13;;;;;;;;;;;18.70;48.90;;;;;;5006229;28;19909;-71
2023/02/19 13:41:40;;;;;;;;;;;18.70;49.00;;;;;;5006231;28;19902;-72
2023/02/19 13:44:13;;;;;;;;;;;18.70;48.90;;;;;;5006743;28;19918;-72
2023/02/19 13:46:41;;;;;;;;;;;18.70;48.90;;;;;;5006471;28;19906;-72
2023/02/19 13:49:22;;;;;;;;;;;18.70;48.90;;;;;;5006237;28;19948;-70
2023/02/19 13:51:50;;;;;;;;;;;18.70;48.90;;;;;;5006608;28;20292;-70
2023/02/19 13:54:21;;;;;;;;;;;18.70;48.90;;;;;;5006491;28;19936;-72
2023/02/19 13:56:47;;;;;;;;;;;18.70;48.80;;;;;;5006245;28;19921;-72
2023/02/19 13:59:39;;;;;;;;;;;18.70;48.80;;;;;;5006510;28;20206;-71
2023/02/19 14:02:09;;;;;;;;;;;18.70;49.00;;;;;;5004694;28;19909;-71
2023/02/19 14:04:49;;;;;;;;;;;18.70;49.00;;;;;;5006729;28;19909;-71
2023/02/19 14:07:15;;;;;;;;;;;18.70;49.00;;;;;;5006587;28;19925;-73
2023/02/19 14:09:43;;;;;;;;;;;18.80;48.80;;;;;;5006630;28;20317;-73
2023/02/19 14:12:09;;;;;;;;;;;18.90;48.70;;;;;;5006259;28;19901;-71
2023/02/19 14:14:36;;;;;;;;;;;19.00;48.60;;;;;;5006673;28;19902;-71
2023/02/19 14:17:08;;;;;;;;;;;19.00;48.30;;;;;;5006952;28;19976;-71
2023/02/19 14:19:40;;;;;;;;;;;19.10;48.20;;;;;;5006797;28;20228;-71
2023/02/19 14:22:24;;;;;;;;;;;19.10;48.10;;;;;;5006920;28;19910;-73
2023/02/19 14:24:51;;;;;;;;;;;19.10;48.00;;;;;;5008247;28;20193;-74
2023/02/19 14:27:17;;;;;;;;;;;19.10;48.10;;;;;;5010703;28;19917;-71
2023/02/19 14:29:43;;;;;;;;;;;19.10;48.00;;;;;;5010549;28;19937;-72
2023/02/19 14:32:15;;;;;;;;;;;19.10;48.10;;;;;;5010840;28;20305;-71
2023/02/19 14:34:43;;;;;;;;;;;19.00;48.10;;;;;;5010379;28;19909;-71
2023/02/19 14:37:15;;;;;;;;;;;19.00;48.10;;;;;;5010485;28;19910;-71
2023/02/19 14:39:43;;;;;;;;;;;19.00;48.20;;;;;;5010489;28;19910;-72
2023/02/19 14:42:16;;;;;;;;;;;19.00;48.30;;;;;;5009912;28;19965;-71
2023/02/19 14:44:56;;;;;;;;;;;18.90;48.30;;;;;;5010071;28;19909;-71
2023/02/19 14:47:23;;;;;;;;;;;18.90;48.40;;;;;;5008911;28;19910;-71
2023/02/19 14:49:53;;;;;;;;;;;18.90;48.40;;;;;;5010046;28;20063;-71
2023/02/19 14:52:20;;;;;;;;;;;18.80;48.40;;;;;;5009460;28;19909;-72
2023/02/19 14:54:57;;;;;;;;;;;18.80;48.50;;;;;;5009097;28;19908;-70